Time;durP1;ratioP1;P1;durP2;ratioP2;P2;SDS_P1;SDS_P2;PMS_P1;PMS_P2;Temp;Humidity;BMP_temperature;BMP_pressure;BME280_temperature;BME280_humidity;BME280_pressure;Samples;Min_cycle;Max_cycle;Signal;HPM_P1;HPM_P2
2023/03/11 00:01:10;;;;;;;;;4.33;3.00;;;;;17.11;47.29;99467.63;146622;647;45016;-73
2023/03/11 00:04:24;;;;;;;;;5.33;4.00;;;;;17.14;47.49;99465.00;146626;598;45021;-71
2023/03/11 00:07:25;;;;;;;;;8.75;6.00;;;;;18.04;47.47;99603.41;146621;569;45016;-72
2023/03/11 00:10:36;;;;;;;;;10.50;8.75;;;;;16.17;47.75;99283.91;146625;621;46010;-72
2023/03/11 00:13:35;;;;;;;;;21.50;17.00;;;;;18.00;48.38;99605.16;146619;585;45914;-73
2023/03/11 00:16:44;;;;;;;;;11.25;9.00;;;;;17.95;48.56;99599.91;146623;619;45020;-71
2023/03/11 00:19:46;;;;;;;;;3.33;3.00;;;;;17.89;48.66;99620.00;146622;592;45017;-72
2023/03/11 00:22:55;;;;;;;;;;;;;;;;;;;;;
2023/03/11 00:25:54;;;;;;;;;2.67;2.67;;;;;17.78;49.37;99622.56;146622;565;45912;-72
2023/03/11 00:29:04;;;;;;;;;7.25;7.25;;;;;17.75;52.14;99654.84;146621;621;47020;-71
2023/03/11 00:32:08;;;;;;;;;3.67;3.67;;;;;17.67;50.56;99676.66;146623;633;45016;-71
2023/03/11 00:35:04;;;;;;;;;3.00;2.67;;;;;17.60;54.73;99706.31;146626;611;45021;-72
2023/03/11 00:38:04;;;;;;;;;1.00;1.00;;;;;17.42;60.01;99720.19;146623;577;45914;-70
2023/03/11 00:41:17;;;;;;;;;0.00;0.00;;;;;15.22;56.26;99404.13;146626;604;46011;-71
2023/03/11 00:44:19;;;;;;;;;0.00;0.00;;;;;16.77;61.17;99706.53;146624;656;45018;-71
2023/03/11 00:47:14;;;;;;;;;0.00;0.00;;;;;16.52;61.52;99688.78;146627;587;45020;-70
2023/03/11 00:50:44;;;;;;;;;0.00;0.00;;;;;14.38;57.79;99389.09;146623;686;45017;-72
2023/03/11 00:53:39;;;;;;;;;0.00;0.00;;;;;15.97;62.17;99730.84;146626;594;45022;-72
2023/03/11 00:56:58;;;;;;;;;0.00;0.00;;;;;15.79;60.77;99689.63;146621;682;45017;-69
2023/03/11 00:59:56;;;;;;;;;0.00;0.00;;;;;15.69;62.04;99682.53;146625;659;45020;-71
2023/03/11 01:03:16;;;;;;;;;0.00;0.00;;;;;15.64;62.42;99666.75;146635;572;45016;-75
2023/03/11 01:06:10;;;;;;;;;0.00;0.00;;;;;15.62;63.64;99680.66;146634;569;45010;-72
2023/03/11 01:09:10;;;;;;;;;0.00;0.00;;;;;15.59;64.48;99684.09;146640;648;44016;-73
2023/03/11 01:12:04;;;;;;;;;0.00;0.00;;;;;15.56;67.48;99680.56;146641;619;44034;-73
2023/03/11 01:15:03;;;;;;;;;0.00;0.00;;;;;15.50;68.72;99659.59;146638;572;44016;-74
2023/03/11 01:18:08;;;;;;;;;0.00;0.00;;;;;15.41;68.22;99668.16;146635;564;45021;-73
2023/03/11 01:21:09;;;;;;;;;0.00;0.00;;;;;15.29;70.48;99668.84;146638;583;45016;-71
2023/03/11 01:24:27;;;;;;;;;0.00;0.00;;;;;15.18;69.62;99676.53;146640;618;45010;-74
2023/03/11 01:27:37;;;;;;;;;0.00;0.00;;;;;13.17;67.19;99338.44;146639;646;44912;-70
2023/03/11 01:31:01;;;;;;;;;0.00;0.00;;;;;13.10;68.55;99341.78;146640;619;45010;-71
2023/03/11 01:34:11;;;;;;;;;1.00;1.00;;;;;14.90;72.71;99653.44;146638;613;44914;-72
2023/03/11 01:37:18;;;;;;;;;0.00;0.00;;;;;14.79;74.53;99646.28;146640;619;45010;-72
2023/03/11 01:40:34;;;;;;;;;0.00;0.00;;;;;14.70;72.75;99642.66;146639;567;44913;-75
2023/03/11 01:44:05;;;;;;;;;1.00;0.00;;;;;14.63;71.24;99646.88;146642;614;44020;-77
2023/03/11 01:47:47;;;;;;;;;0.00;0.00;;;;;12.67;71.15;99317.50;146637;628;45913;-73
2023/03/11 01:51:01;;;;;;;;;0.00;0.00;;;;;14.51;74.64;99624.06;146641;566;44020;-71
2023/03/11 01:54:14;;;;;;;;;;;;;;;;;;;;;
2023/03/11 01:57:30;;;;;;;;;0.00;0.00;;;;;14.30;75.60;99621.94;146641;579;44021;-72
2023/03/11 02:00:46;;;;;;;;;1.00;0.00;;;;;12.26;74.87;99286.34;146639;698;44912;-72
2023/03/11 02:03:50;;;;;;;;;0.00;0.00;;;;;14.21;75.53;99610.47;146641;563;45010;-72
2023/03/11 02:06:47;;;;;;;;;0.00;0.00;;;;;14.20;76.07;99595.66;146640;603;44912;-72
2023/03/11 02:09:46;;;;;;;;;0.00;0.00;;;;;14.21;75.50;99589.59;146640;569;44044;-71
2023/03/11 02:12:57;;;;;;;;;0.67;0.67;;;;;14.20;75.84;99573.06;146640;590;44912;-71
2023/03/11 02:15:50;;;;;;;;;0.00;0.00;;;;;14.17;75.27;99559.97;146642;576;44021;-72
2023/03/11 02:18:44;;;;;;;;;0.00;0.00;;;;;14.21;74.85;99572.22;146639;586;44912;-72
2023/03/11 02:21:55;;;;;;;;;2.00;1.00;;;;;12.24;74.63;99249.03;146641;648;44020;-72
2023/03/11 02:25:14;;;;;;;;;1.33;0.67;;;;;14.23;73.91;99577.44;146637;622;44912;-74
2023/03/11 02:28:48;;;;;;;;;;;;;;;;;;;;;
2023/03/11 02:32:01;;;;;;;;;0.00;0.00;;;;;14.26;73.38;99581.00;146639;618;44017;-71
2023/03/11 02:35:15;;;;;;;;;0.00;0.00;;;;;14.39;72.38;99576.00;146638;617;44020;-73
2023/03/11 02:38:19;;;;;;;;;0.00;0.00;;;;;14.33;75.35;99564.63;146638;622;45916;-72
2023/03/11 02:41:26;;;;;;;;;0.00;0.00;;;;;14.31;74.61;99571.53;146636;574;44020;-73
2023/03/11 02:44:34;;;;;;;;;0.00;0.00;;;;;14.23;73.68;99574.84;146638;579;44916;-74
2023/03/11 02:47:43;;;;;;;;;0.00;0.00;;;;;14.22;73.93;99588.75;146641;604;44021;-75
2023/03/11 02:50:42;;;;;;;;;0.00;0.00;;;;;14.24;71.56;99585.31;146639;591;44916;-72
2023/03/11 02:53:56;;;;;;;;;0.00;0.00;;;;;14.36;70.06;99594.19;146641;586;44048;-72
2023/03/11 02:56:59;;;;;;;;;0.00;0.00;;;;;14.45;72.12;99590.00;146638;573;44916;-71
2023/03/11 03:00:11;;;;;;;;;0.00;0.00;;;;;14.47;72.04;99587.44;146640;608;44020;-71
2023/03/11 03:03:09;;;;;;;;;0.00;0.00;;;;;14.47;71.73;99593.53;146639;619;44912;-70
2023/03/11 03:06:17;;;;;;;;;0.00;0.00;;;;;14.47;71.53;99598.75;146641;563;44020;-70
2023/03/11 03:09:13;;;;;;;;;0.00;0.00;;;;;14.47;71.11;99605.69;146633;646;45016;-70
2023/03/11 03:12:13;;;;;;;;;0.00;0.00;;;;;14.46;70.63;99615.25;146635;572;44020;-71
2023/03/11 03:15:37;;;;;;;;;0.67;0.00;;;;;14.49;70.09;99612.72;146639;692;44016;-72
2023/03/11 03:18:41;;;;;;;;;0.00;0.00;;;;;14.50;69.70;99617.06;146639;613;44023;-71
2023/03/11 03:21:57;;;;;;;;;14.75;12.00;;;;;12.51;68.73;99268.66;146638;566;44916;-69
2023/03/11 03:25:06;;;;;;;;;0.00;0.00;;;;;14.52;70.26;99604.09;146641;619;44021;-69
2023/03/11 03:28:01;;;;;;;;;0.00;0.00;;;;;14.44;71.31;99597.81;146639;577;44912;-69
2023/03/11 03:31:16;;;;;;;;;0.00;0.00;;;;;12.31;70.27;99266.53;146640;605;44021;-68
2023/03/11 03:34:08;;;;;;;;;0.00;0.00;;;;;14.20;72.87;99593.03;146640;626;44016;-71
2023/03/11 03:37:16;;;;;;;;;0.00;0.00;;;;;14.05;74.03;99599.75;146639;574;45010;-68
2023/03/11 03:40:22;;;;;;;;;0.00;0.00;;;;;13.86;75.24;99608.94;146640;648;44017;-70
2023/03/11 03:43:30;;;;;;;;;2.00;0.00;;;;;11.83;74.58;99274.09;146639;655;45010;-71
2023/03/11 03:46:47;;;;;;;;;2.00;1.33;;;;;13.71;75.16;99587.78;146638;615;45013;-72
2023/03/11 03:49:46;;;;;;;;;0.00;0.00;;;;;13.75;75.13;99604.34;146641;586;44020;-73
2023/03/11 03:52:45;;;;;;;;;3.33;0.33;;;;;13.79;75.32;99590.53;146639;607;44017;-73
2023/03/11 03:55:50;;;;;;;;;0.00;0.00;;;;;13.78;75.02;99579.22;146641;577;44020;-74
2023/03/11 03:58:58;;;;;;;;;0.33;0.33;;;;;13.78;75.49;99570.53;146638;584;44912;-70
2023/03/11 04:01:56;;;;;;;;;0.00;0.00;;;;;13.78;74.58;99587.03;146630;684;45012;-73
2023/03/11 04:05:04;;;;;;;;;;;;;;;;;;;;;
2023/03/11 04:08:01;;;;;;;;;0.00;0.00;;;;;13.89;72.88;99602.00;146624;582;45022;-72
2023/03/11 04:11:16;;;;;;;;;1.00;0.25;;;;;13.96;71.80;99599.56;146622;645;45016;-72
2023/03/11 04:14:19;;;;;;;;;0.00;0.00;;;;;13.99;71.26;99598.75;146625;565;45020;-73
2023/03/11 04:17:26;;;;;;;;;0.00;0.00;;;;;13.95;72.41;99597.78;146618;570;45017;-72
2023/03/11 04:20:23;;;;;;;;;0.00;0.00;;;;;13.91;73.28;99595.09;146627;629;45020;-70
2023/03/11 04:23:30;;;;;;;;;;;;;;;;;;;;;
2023/03/11 04:26:35;;;;;;;;;0.00;0.00;;;;;11.72;74.40;99259.16;146624;581;46020;-73
2023/03/11 04:29:39;;;;;;;;;0.33;0.00;;;;;13.46;76.28;99585.47;146621;576;45017;-73
2023/03/11 04:32:31;;;;;;;;;2.25;0.00;;;;;13.27;74.51;99587.72;146625;660;45021;-74
2023/03/11 04:35:36;;;;;;;;;0.00;0.00;;;;;13.21;74.53;99568.41;146623;603;45025;-69
2023/03/11 04:38:33;;;;;;;;;0.00;0.00;;;;;13.23;72.87;99578.03;146625;575;45021;-70
2023/03/11 04:41:38;;;;;;;;;4.25;2.25;;;;;13.31;72.88;99586.06;146621;599;45016;-68
2023/03/11 04:44:32;;;;;;;;;0.25;0.00;;;;;13.34;73.49;99580.91;146622;576;45021;-68
2023/03/11 04:47:29;;;;;;;;;2.00;2.00;;;;;13.35;72.79;99595.69;146621;581;45017;-68
2023/03/11 04:50:25;;;;;;;;;0.00;0.00;;;;;13.36;72.60;99600.03;146629;668;45020;-68
2023/03/11 04:53:33;;;;;;;;;1.00;0.00;;;;;13.36;73.43;99608.75;146623;592;45016;-67
2023/03/11 04:56:33;;;;;;;;;1.50;0.25;;;;;13.34;72.31;99605.22;146620;651;45020;-68
2023/03/11 04:59:28;;;;;;;;;1.00;1.00;;;;;13.32;73.33;99591.28;146622;680;45017;-68
2023/03/11 05:02:33;;;;;;;;;;;;;;;;;;;;;
2023/03/11 05:05:32;;;;;;;;;0.00;0.00;;;;;13.27;72.32;99603.34;146622;590;45018;-74
2023/03/11 05:08:32;;;;;;;;;7.50;5.25;;;;;13.20;72.61;99598.78;146625;680;45021;-74
2023/03/11 05:11:35;;;;;;;;;2.00;2.00;;;;;13.15;75.12;99595.22;146621;620;45913;-69
2023/03/11 05:14:37;;;;;;;;;3.00;3.00;;;;;13.08;74.44;99603.69;146625;610;45020;-70
2023/03/11 05:17:40;;;;;;;;;2.00;1.00;;;;;13.02;73.48;99581.03;146623;563;45016;-71
2023/03/11 05:20:35;;;;;;;;;2.00;1.00;;;;;12.99;73.78;99583.56;146625;571;45020;-72
2023/03/11 05:23:40;;;;;;;;;0.67;0.67;;;;;12.94;72.52;99586.06;146623;570;45914;-70
2023/03/11 05:26:35;;;;;;;;;0.50;0.50;;;;;12.99;73.62;99587.88;146626;700;45020;-69
2023/03/11 05:29:34;;;;;;;;;1.00;1.00;;;;;13.06;73.34;99579.38;146622;582;45016;-69
2023/03/11 05:32:29;;;;;;;;;4.00;3.00;;;;;13.09;72.75;99580.31;146624;582;45029;-70
2023/03/11 05:35:31;;;;;;;;;3.00;3.00;;;;;13.13;72.15;99574.34;146623;572;45016;-72
2023/03/11 05:38:35;;;;;;;;;3.00;2.75;;;;;13.16;72.46;99568.31;146623;597;45021;-69
2023/03/11 05:42:00;;;;;;;;;3.25;3.25;;;;;11.17;71.42;99220.59;146622;575;45016;-69
2023/03/11 05:44:52;;;;;;;;;4.50;3.50;;;;;13.18;72.55;99569.25;146624;682;45020;-69
2023/03/11 05:47:48;;;;;;;;;4.25;3.50;;;;;13.15;72.30;99579.59;146621;683;45016;-70
2023/03/11 05:50:58;;;;;;;;;7.75;6.00;;;;;13.18;72.75;99577.94;146625;594;45020;-68
2023/03/11 05:54:19;;;;;;;;;2.00;2.00;;;;;11.24;72.08;99230.28;146623;575;45017;-68
2023/03/11 05:57:17;;;;;;;;;1.00;1.00;;;;;13.12;72.97;99595.13;146626;582;45020;-68
2023/03/11 06:00:34;;;;;;;;;3.00;3.00;;;;;13.06;72.05;99589.78;146625;594;45017;-68
2023/03/11 06:03:35;;;;;;;;;4.00;2.67;;;;;13.10;72.79;99591.59;146641;565;44020;-68
2023/03/11 06:06:44;;;;;;;;;3.00;3.00;;;;;13.15;72.60;99584.78;146638;640;44914;-68
2023/03/11 06:09:58;;;;;;;;;3.75;3.50;;;;;13.35;74.26;99587.88;146639;700;44021;-68
2023/03/11 06:12:53;;;;;;;;;7.25;5.00;;;;;13.82;73.98;99599.28;146639;628;44023;-67
2023/03/11 06:15:53;;;;;;;;;7.00;7.00;;;;;14.27;72.80;99587.97;146639;607;44021;-68
2023/03/11 06:18:53;;;;;;;;;7.00;6.25;;;;;14.73;71.10;99574.84;146635;566;45012;-67
2023/03/11 06:22:16;;;;;;;;;5.75;3.25;;;;;15.16;69.75;99581.63;146637;651;44021;-67
2023/03/11 06:25:21;;;;;;;;;8.00;5.25;;;;;13.95;68.12;99297.22;146637;587;45012;-68
2023/03/11 06:28:21;;;;;;;;;3.50;3.50;;;;;16.09;68.69;99584.56;146641;564;44020;-70
2023/03/11 06:31:24;;;;;;;;;4.00;3.00;;;;;16.59;66.81;99591.16;146637;620;44914;-70
2023/03/11 06:34:20;;;;;;;;;0.00;0.00;;;;;17.01;64.07;99590.66;146641;575;45010;-70
2023/03/11 06:37:15;;;;;;;;;0.00;0.00;;;;;17.39;62.55;99589.16;146638;573;45914;-70
2023/03/11 06:40:16;;;;;;;;;0.00;0.00;;;;;17.79;61.86;99600.72;146639;592;45010;-74
2023/03/11 06:43:13;;;;;;;;;1.00;1.00;;;;;18.10;60.88;99600.81;146640;581;45012;-73
2023/03/11 06:46:34;;;;;;;;;0.33;0.33;;;;;18.38;59.33;99594.78;146638;564;45010;-73
2023/03/11 06:49:31;;;;;;;;;0.33;0.33;;;;;18.57;55.58;99595.66;146638;584;45912;-72
2023/03/11 06:52:56;;;;;;;;;;;;;;;;;;;;;
2023/03/11 06:56:22;;;;;;;;;0.33;0.00;;;;;18.82;57.45;99585.19;146639;574;44016;-73
2023/03/11 06:59:34;;;;;;;;;0.33;0.00;;;;;19.17;56.74;99573.78;146640;646;44052;-72
2023/03/11 07:02:35;;;;;;;;;5.00;5.00;;;;;19.51;56.04;99579.81;146630;609;45014;-75
2023/03/11 07:05:31;;;;;;;;;4.00;3.00;;;;;19.81;56.15;99565.69;146625;667;45020;-79
2023/03/11 07:08:41;;;;;;;;;3.67;2.00;;;;;20.09;54.60;99561.16;146624;645;45017;-78
2023/03/11 07:11:42;;;;;;;;;3.00;1.00;;;;;20.37;53.67;99553.94;146624;577;45020;-77
2023/03/11 07:14:44;;;;;;;;;1.33;0.00;;;;;20.62;51.19;99559.06;146621;575;46016;-73
2023/03/11 07:17:49;;;;;;;;;0.00;0.00;;;;;20.81;50.73;99559.75;146625;604;45020;-73
2023/03/11 07:20:48;;;;;;;;;1.67;1.00;;;;;20.90;50.27;99557.94;146619;588;46016;-73
2023/03/11 07:23:45;;;;;;;;;0.33;0.00;;;;;20.83;46.92;99561.50;146625;610;45020;-71
2023/03/11 07:27:01;;;;;;;;;1.00;0.67;;;;;20.84;51.06;99573.81;146621;569;46012;-77
2023/03/11 07:30:01;;;;;;;;;1.00;1.00;;;;;20.92;49.18;99569.31;146628;569;45021;-73
2023/03/11 07:33:00;;;;;;;;;3.00;1.00;;;;;20.91;48.07;99577.25;146624;664;45016;-73
2023/03/11 07:36:07;;;;;;;;;1.00;0.00;;;;;20.89;45.20;99565.84;146628;610;45020;-74
2023/03/11 07:39:28;;;;;;;;;1.00;1.00;;;;;20.80;48.55;99571.19;146622;675;45016;-72
2023/03/11 07:42:43;;;;;;;;;0.00;0.00;;;;;20.61;50.14;99578.38;146626;568;45020;-77
2023/03/11 07:45:36;;;;;;;;;0.67;0.00;;;;;20.37;50.14;99568.88;146623;642;45016;-77
2023/03/11 07:48:38;;;;;;;;;0.00;0.00;;;;;20.21;50.58;99576.84;146626;591;45020;-76
2023/03/11 07:51:51;;;;;;;;;0.00;0.00;;;;;20.06;50.32;99582.22;146620;585;48012;-75
2023/03/11 07:54:52;;;;;;;;;0.00;0.00;;;;;20.13;51.63;99588.34;146622;563;45911;-76
2023/03/11 07:58:03;;;;;;;;;0.00;0.00;;;;;20.33;51.58;99585.56;146624;589;45016;-76
2023/03/11 08:00:59;;;;;;;;;0.00;0.00;;;;;20.41;48.46;99576.75;146625;614;45020;-77
2023/03/11 08:04:00;;;;;;;;;0.00;0.00;;;;;20.43;49.61;99574.97;146623;600;45016;-76
2023/03/11 08:07:00;;;;;;;;;0.00;0.00;;;;;20.50;49.71;99566.16;146625;642;46021;-75
2023/03/11 08:10:01;;;;;;;;;2.00;0.00;;;;;20.59;50.60;99556.44;146620;673;47012;-78
2023/03/11 08:13:02;;;;;;;;;1.00;0.00;;;;;20.77;47.81;99556.28;146625;566;45021;-77
2023/03/11 08:15:57;;;;;;;;;0.67;0.00;;;;;20.95;48.10;99561.41;146622;625;45027;-76
2023/03/11 08:19:03;;;;;;;;;0.00;0.00;;;;;19.43;49.54;99269.63;146624;568;45020;-77
2023/03/11 08:22:02;;;;;;;;;0.00;0.00;;;;;21.40;47.26;99564.50;146623;620;45017;-77
2023/03/11 08:25:05;;;;;;;;;0.00;0.00;;;;;21.59;45.95;99559.87;146625;616;45020;-77
2023/03/11 08:28:12;;;;;;;;;1.33;0.67;;;;;21.74;46.75;99558.78;146622;606;45016;-78
2023/03/11 08:31:32;;;;;;;;;0.00;0.00;;;;;21.95;48.07;99559.41;146626;603;45029;-78
2023/03/11 08:34:42;;;;;;;;;1.00;0.00;;;;;22.12;47.13;99557.41;146622;593;45923;-78
2023/03/11 08:38:14;;;;;;;;;0.00;0.00;;;;;22.28;46.17;99550.16;146625;571;45022;-77
2023/03/11 08:41:12;;;;;;;;;0.67;0.00;;;;;22.41;45.20;99545.56;146621;660;45916;-78
2023/03/11 08:44:16;;;;;;;;;;;;;;;;;;;;;
2023/03/11 08:47:12;;;;;;;;;0.67;0.00;;;;;22.62;45.61;99547.88;146621;572;45018;-76
2023/03/11 08:50:16;;;;;;;;;0.00;0.00;;;;;22.71;44.55;99547.72;146624;573;45021;-76
2023/03/11 08:53:19;;;;;;;;;0.00;0.00;;;;;22.77;43.86;99536.13;146620;697;45916;-78
2023/03/11 08:56:15;;;;;;;;;1.00;0.67;;;;;22.92;44.55;99541.16;146626;615;45020;-77
2023/03/11 08:59:17;;;;;;;;;0.00;0.00;;;;;21.42;45.52;99266.47;146624;564;45014;-77
2023/03/11 09:02:16;;;;;;;;;1.00;0.00;;;;;23.10;43.02;99541.75;146625;564;45020;-78
2023/03/11 09:05:19;;;;;;;;;0.00;0.00;;;;;23.16;40.82;99539.00;146621;599;45916;-77
2023/03/11 09:08:37;;;;;;;;;0.00;0.00;;;;;21.48;44.02;99250.56;146626;655;45020;-77
2023/03/11 09:11:36;;;;;;;;;0.00;0.00;;;;;23.01;41.20;99533.09;146625;569;45016;-76
2023/03/11 09:14:47;;;;;;;;;0.00;0.00;;;;;22.83;44.04;99517.53;146627;575;45023;-75
2023/03/11 09:17:59;;;;;;;;;0.00;0.00;;;;;22.88;43.01;99510.41;146620;569;46012;-78
2023/03/11 09:20:58;;;;;;;;;0.00;0.00;;;;;22.93;42.43;99516.50;146624;564;45020;-78
2023/03/11 09:24:15;;;;;;;;;0.00;0.00;;;;;22.98;44.21;99517.28;146622;632;45916;-72
2023/03/11 09:27:15;;;;;;;;;0.00;0.00;;;;;23.03;41.94;99507.50;146625;699;45037;-75
2023/03/11 09:30:30;;;;;;;;;0.00;0.00;;;;;21.51;44.36;99220.62;146622;604;45026;-75
2023/03/11 09:33:42;;;;;;;;;0.00;0.00;;;;;23.33;42.47;99499.00;146626;586;45022;-75
2023/03/11 09:37:20;;;;;;;;;0.00;0.00;;;;;22.03;41.86;99249.59;146622;633;46012;-76
2023/03/11 09:40:52;;;;;;;;;0.00;0.00;;;;;22.06;42.58;99223.13;146624;588;45020;-74
2023/03/11 09:44:13;;;;;;;;;0.00;0.00;;;;;23.71;41.65;99499.09;146628;583;45017;-76
2023/03/11 09:47:49;;;;;;;;;0.00;0.00;;;;;23.77;43.53;99510.44;146627;591;45022;-76
2023/03/11 09:51:27;;;;;;;;;0.00;0.00;;;;;22.29;43.00;99230.63;146624;613;45017;-75
2023/03/11 09:55:08;;;;;;;;;0.00;0.00;;;;;24.00;43.40;99502.88;146625;680;45022;-76
2023/03/11 09:58:37;;;;;;;;;1.33;0.00;;;;;24.14;42.04;99489.28;146622;612;45914;-75
2023/03/11 10:01:55;;;;;;;;;0.00;0.00;;;;;23.20;41.25;99345.00;146621;654;45020;-77
2023/03/11 10:05:37;;;;;;;;;0.00;0.00;;;;;22.33;43.16;99219.06;146622;594;45916;-78
2023/03/11 10:09:09;;;;;;;;;0.00;0.00;;;;;22.25;37.10;99180.56;146624;670;46010;-73
2023/03/11 10:12:39;;;;;;;;;0.00;0.00;;;;;22.13;38.57;99186.91;146621;743;46012;-73
2023/03/11 10:16:33;;;;;;;;;0.00;0.00;;;;;22.41;39.86;99226.88;146625;661;45020;-73
2023/03/11 10:20:13;;;;;;;;;0.67;0.00;;;;;22.16;41.84;99168.41;146623;628;45916;-73
2023/03/11 10:24:05;;;;;;;;;0.33;0.00;;;;;22.14;38.47;99226.47;146624;596;45020;-72
2023/03/11 10:27:25;;;;;;;;;1.00;0.00;;;;;23.21;36.43;99465.75;146623;564;45916;-74
2023/03/11 10:30:59;;;;;;;;;0.00;0.00;;;;;22.95;40.26;99468.91;146624;574;45022;-74
2023/03/11 10:34:21;;;;;;;;;0.00;0.00;;;;;23.07;39.33;99454.56;146622;587;45017;-73
2023/03/11 10:37:41;;;;;;;;;1.00;0.00;;;;;23.42;36.33;99454.69;146622;594;45022;-73
2023/03/11 10:41:04;;;;;;;;;0.00;0.00;;;;;22.11;36.66;99183.44;146622;615;45916;-73
2023/03/11 10:44:39;;;;;;;;;0.00;0.00;;;;;23.03;37.61;99314.50;146624;569;45022;-78
2023/03/11 10:47:43;;;;;;;;;0.00;0.00;;;;;23.90;34.31;99445.75;146625;620;46016;-74
2023/03/11 10:50:39;;;;;;;;;0.00;0.00;;;;;23.83;35.34;99439.72;146625;564;45049;-75
2023/03/11 10:53:43;;;;;;;;;1.00;1.00;;;;;23.58;35.08;99444.66;146622;592;45914;-74
2023/03/11 10:57:27;;;;;;;;;1.00;0.00;;;;;23.23;38.31;99450.72;146623;627;45914;-73
2023/03/11 11:00:42;;;;;;;;;0.00;0.00;;;;;23.02;35.11;99446.72;146623;652;45018;-75
2023/03/11 11:03:54;;;;;;;;;0.00;0.00;;;;;22.74;35.36;99452.53;146619;592;46012;-75
2023/03/11 11:07:45;;;;;;;;;0.00;0.00;;;;;20.82;39.19;99158.47;146621;581;45914;-73
2023/03/11 11:11:14;;;;;;;;;2.00;0.00;;;;;22.60;37.91;99431.63;146624;579;45022;-74
2023/03/11 11:14:50;;;;;;;;;0.00;0.00;;;;;20.85;35.98;99126.81;146623;593;45024;-74
2023/03/11 11:18:04;;;;;;;;;0.67;0.00;;;;;22.53;36.07;99422.06;146623;621;45021;-74
2023/03/11 11:21:57;;;;;;;;;0.00;0.00;;;;;20.99;36.40;99122.16;146623;583;45914;-74
2023/03/11 11:25:28;;;;;;;;;0.00;0.00;;;;;20.93;38.54;99127.53;146625;650;45021;-73
2023/03/11 11:28:37;;;;;;;;;0.00;0.00;;;;;21.47;34.69;99238.28;146625;570;45018;-74
2023/03/11 11:31:51;;;;;;;;;0.00;0.00;;;;;22.17;36.04;99401.59;146627;576;45020;-74
2023/03/11 11:35:16;;;;;;;;;0.00;0.00;;;;;22.05;35.32;99377.09;146623;583;45912;-75
2023/03/11 11:38:18;;;;;;;;;1.67;1.00;;;;;22.13;36.98;99371.72;146624;626;45037;-75
2023/03/11 11:41:25;;;;;;;;;1.00;0.00;;;;;22.33;37.85;99356.41;146623;571;45017;-73
2023/03/11 11:44:24;;;;;;;;;1.33;0.67;;;;;22.69;36.69;99363.66;146627;569;45020;-75
2023/03/11 11:47:45;;;;;;;;;0.00;0.00;;;;;22.32;39.43;99230.56;146621;591;46010;-73
2023/03/11 11:51:20;;;;;;;;;0.00;0.00;;;;;21.81;34.94;99085.53;146627;572;45022;-77
2023/03/11 11:54:49;;;;;;;;;0.00;0.00;;;;;23.52;34.93;99346.91;146622;574;45022;-74
2023/03/11 11:58:13;;;;;;;;;0.00;0.00;;;;;23.62;34.60;99326.41;146610;571;45020;-75
2023/03/11 12:01:45;;;;;;;;;0.00;0.00;;;;;23.78;37.46;99326.94;146611;585;45016;-74
2023/03/11 12:05:01;;;;;;;;;0.00;0.00;;;;;23.77;34.38;99317.22;146613;608;45020;-74
2023/03/11 12:08:59;;;;;;;;;0.00;0.00;;;;;23.63;36.65;99329.00;146608;632;45918;-75
2023/03/11 12:12:19;;;;;;;;;0.33;0.00;;;;;23.48;37.41;99310.84;146612;586;45023;-75
2023/03/11 12:16:02;;;;;;;;;0.00;0.00;;;;;23.62;36.20;99316.69;146612;627;45018;-73
2023/03/11 12:19:51;;;;;;;;;0.00;0.00;;;;;23.84;33.95;99302.94;146614;647;45020;-75
2023/03/11 12:23:26;;;;;;;;;0.00;0.00;;;;;24.09;36.36;99304.03;146610;621;45018;-75
2023/03/11 12:26:45;;;;;;;;;1.00;0.00;;;;;22.59;36.86;99036.28;146614;619;45021;-75
2023/03/11 12:30:20;;;;;;;;;;;;;;;;;;;;;
2023/03/11 12:34:01;;;;;;;;;0.00;0.00;;;;;23.88;36.45;99301.94;146614;589;45021;-76
2023/03/11 12:37:28;;;;;;;;;0.00;0.00;;;;;23.58;33.93;99296.47;146612;736;45016;-74
2023/03/11 12:41:14;;;;;;;;;;;;;;;;;;;;;
2023/03/11 12:44:55;;;;;;;;;0.00;0.00;;;;;21.03;35.98;99025.47;146608;704;46010;-74
2023/03/11 12:49:06;;;;;;;;;;;;;;;;;;;;;
2023/03/11 12:52:38;;;;;;;;;2.00;0.00;;;;;20.35;38.98;99026.59;146611;594;45018;-77
2023/03/11 12:55:41;;;;;;;;;1.00;0.00;;;;;21.84;36.88;99306.25;146613;593;45021;-77
2023/03/11 12:59:06;;;;;;;;;0.00;0.00;;;;;21.63;36.34;99302.19;146610;599;45016;-76
2023/03/11 13:02:48;;;;;;;;;0.00;0.00;;;;;21.47;36.94;99309.47;146611;604;45914;-77
2023/03/11 13:06:21;;;;;;;;;0.00;0.00;;;;;21.36;39.49;99328.09;146609;636;45016;-76
2023/03/11 13:09:27;;;;;;;;;1.33;0.00;;;;;21.30;39.50;99327.28;146613;642;45028;-76
2023/03/11 13:12:55;;;;;;;;;0.00;0.00;;;;;19.65;39.85;99038.09;146607;592;46021;-76
2023/03/11 13:15:52;;;;;;;;;0.00;0.00;;;;;21.27;37.70;99303.59;146609;564;45021;-74
2023/03/11 13:19:27;;;;;;;;;0.00;0.00;;;;;19.75;40.39;99052.88;146607;654;45916;-76
2023/03/11 13:23:09;;;;;;;;;0.00;0.00;;;;;21.16;39.96;99304.62;146611;662;45020;-76
2023/03/11 13:26:33;;;;;;;;;0.00;0.00;;;;;21.07;40.21;99291.59;146612;596;45016;-75
2023/03/11 13:30:27;;;;;;;;;0.00;0.00;;;;;20.99;39.98;99304.84;146614;577;45020;-75
2023/03/11 13:34:13;;;;;;;;;7.00;5.00;;;;;19.19;40.35;99017.56;146611;592;45017;-75
2023/03/11 13:37:42;;;;;;;;;5.33;5.33;;;;;20.87;40.58;99315.59;146613;580;45020;-76
2023/03/11 13:40:52;;;;;;;;;4.00;2.00;;;;;20.88;40.38;99321.72;146611;579;45912;-76
2023/03/11 13:44:03;;;;;;;;;3.00;2.00;;;;;20.90;40.06;99341.00;146612;601;45020;-75
2023/03/11 13:47:49;;;;;;;;;1.33;1.33;;;;;19.14;39.97;99049.16;146611;636;45912;-76
2023/03/11 13:51:21;;;;;;;;;0.33;0.00;;;;;20.83;40.66;99344.59;146613;612;45020;-77
2023/03/11 13:54:48;;;;;;;;;1.67;1.00;;;;;18.99;40.44;99033.56;146610;613;45019;-76
2023/03/11 13:57:57;;;;;;;;;1.00;0.00;;;;;20.77;38.35;99345.53;146612;624;45029;-78
2023/03/11 14:01:09;;;;;;;;;0.00;0.00;;;;;20.59;39.31;99328.22;146609;592;45037;-76
2023/03/11 14:04:13;;;;;;;;;0.67;0.00;;;;;20.63;39.69;99348.34;146635;620;44020;-75
2023/03/11 14:07:20;;;;;;;;;0.00;0.00;;;;;20.58;40.15;99359.81;146632;603;45016;-76
2023/03/11 14:10:38;;;;;;;;;1.00;1.00;;;;;20.52;40.75;99361.63;146633;570;44021;-75
2023/03/11 14:13:44;;;;;;;;;2.00;2.00;;;;;20.47;39.91;99362.56;146631;648;45016;-76
2023/03/11 14:16:45;;;;;;;;;0.00;0.00;;;;;20.40;39.74;99351.19;146634;575;44021;-75
2023/03/11 14:20:09;;;;;;;;;1.33;1.33;;;;;18.68;40.98;99062.66;146633;606;44912;-72
2023/03/11 14:23:24;;;;;;;;;2.00;0.67;;;;;20.38;40.58;99353.00;146633;575;44021;-76
2023/03/11 14:26:35;;;;;;;;;2.33;0.00;;;;;20.40;40.30;99352.97;146633;671;45012;-76
2023/03/11 14:29:53;;;;;;;;;0.00;0.00;;;;;20.40;41.60;99363.50;146632;594;45012;-76
2023/03/11 14:33:11;;;;;;;;;3.00;1.33;;;;;20.37;40.30;99369.66;146631;595;45031;-76
2023/03/11 14:36:21;;;;;;;;;2.67;1.00;;;;;20.36;41.59;99373.19;146635;627;44916;-76
2023/03/11 14:39:44;;;;;;;;;;;;;;;;;;;;;
2023/03/11 14:42:52;;;;;;;;;5.00;4.25;;;;;20.41;41.81;99365.25;146633;577;44020;-76
2023/03/11 14:46:15;;;;;;;;;3.33;3.33;;;;;20.42;42.29;99378.38;146630;569;45912;-76
2023/03/11 14:49:19;;;;;;;;;4.00;3.00;;;;;20.45;42.19;99385.38;146635;634;44020;-75
2023/03/11 14:52:47;;;;;;;;;3.00;3.00;;;;;18.63;42.89;99075.84;146631;664;45912;-75
2023/03/11 14:56:19;;;;;;;;;5.33;2.67;;;;;20.45;41.95;99382.75;146635;580;44022;-76
2023/03/11 14:59:37;;;;;;;;;5.25;5.00;;;;;20.43;41.69;99392.41;146632;585;45013;-75
2023/03/11 15:03:10;;;;;;;;;13.00;10.25;;;;;20.43;42.79;99402.94;146624;590;45012;-76
2023/03/11 15:06:18;;;;;;;;;17.25;16.25;;;;;20.41;42.06;99410.00;146610;599;45918;-76
2023/03/11 15:09:41;;;;;;;;;15.50;12.50;;;;;20.39;43.37;99406.50;146611;612;45021;-76
2023/03/11 15:13:08;;;;;;;;;13.75;13.00;;;;;18.59;43.38;99107.38;146609;655;45912;-75
2023/03/11 15:16:46;;;;;;;;;11.75;11.75;;;;;18.59;43.15;99123.97;146611;636;45023;-76
2023/03/11 15:19:45;;;;;;;;;7.50;6.75;;;;;20.25;43.07;99417.19;146610;563;45016;-76
2023/03/11 15:23:24;;;;;;;;;17.50;15.50;;;;;20.19;43.22;99410.22;146612;611;45023;-75
2023/03/11 15:26:37;;;;;;;;;21.75;18.75;;;;;20.16;43.14;99409.38;146607;608;47012;-76